createdAt,value
2018-10-07T00:00:06.664Z,4.43
2018-10-07T00:02:35.632Z,4.80
2018-10-07T00:05:04.596Z,5.60
2018-10-07T00:07:33.591Z,4.47
2018-10-07T00:10:02.581Z,4.67
2018-10-07T00:12:31.605Z,5.13
2018-10-07T00:15:00.582Z,6.03
2018-10-07T00:17:29.597Z,5.87
2018-10-07T00:19:58.577Z,5.90
2018-10-07T00:22:27.550Z,6.87
2018-10-07T00:24:56.547Z,7.83
2018-10-07T00:27:25.472Z,7.13
2018-10-07T00:29:54.466Z,7.67
2018-10-07T00:32:23.653Z,6.83
2018-10-07T00:34:52.616Z,7.50
2018-10-07T00:37:21.583Z,8.23
2018-10-07T00:39:50.761Z,10.03
2018-10-07T00:42:19.719Z,13.63
2018-10-07T00:44:48.717Z,11.43
2018-10-07T00:47:17.750Z,11.87
2018-10-07T00:49:46.726Z,15.00
2018-10-07T00:52:15.688Z,12.80
2018-10-07T00:54:44.626Z,13.93
2018-10-07T00:57:13.905Z,13.87
2018-10-07T00:59:42.894Z,13.83
2018-10-07T01:02:12.197Z,14.10
2018-10-07T01:04:41.342Z,14.20
2018-10-07T01:07:10.236Z,13.73
2018-10-07T01:09:39.170Z,12.80
2018-10-07T01:12:08.020Z,13.67
2018-10-07T01:14:36.915Z,14.63
2018-10-07T01:17:05.871Z,15.60
2018-10-07T01:19:34.801Z,13.73
2018-10-07T01:22:03.788Z,14.60
2018-10-07T01:24:32.701Z,13.37
2018-10-07T01:27:01.611Z,14.57
2018-10-07T01:29:30.517Z,12.93
2018-10-07T01:31:59.524Z,11.60
2018-10-07T01:34:28.441Z,12.27
2018-10-07T01:36:57.337Z,12.00
2018-10-07T01:39:26.281Z,13.80
2018-10-07T01:41:55.173Z,13.43
2018-10-07T01:44:24.064Z,13.23
2018-10-07T01:46:52.966Z,13.73
2018-10-07T01:49:22.069Z,12.47
2018-10-07T01:51:51.013Z,12.97
2018-10-07T01:54:19.880Z,11.73
2018-10-07T01:56:48.812Z,10.70
2018-10-07T01:59:17.726Z,11.37
2018-10-07T02:01:46.592Z,11.90
2018-10-07T02:04:15.521Z,11.83
2018-10-07T02:06:44.457Z,11.70
2018-10-07T02:09:13.412Z,11.43
2018-10-07T02:11:42.334Z,12.03
2018-10-07T02:14:11.195Z,9.03
2018-10-07T02:16:40.085Z,8.93
2018-10-07T02:19:09.198Z,10.83
2018-10-07T02:21:38.081Z,8.77
2018-10-07T02:24:07.567Z,7.20
2018-10-07T02:26:36.449Z,6.00
2018-10-07T02:29:05.455Z,4.63
2018-10-07T02:31:34.326Z,4.30
2018-10-07T02:34:03.315Z,4.30
2018-10-07T02:36:32.219Z,3.13
2018-10-07T02:39:01.231Z,3.27
2018-10-07T02:41:30.101Z,3.87
2018-10-07T02:43:59.008Z,2.77
2018-10-07T02:46:28.035Z,2.60
2018-10-07T02:48:56.937Z,3.23
2018-10-07T02:51:25.819Z,2.60
2018-10-07T02:53:54.789Z,2.43
2018-10-07T02:56:23.686Z,1.87
2018-10-07T02:58:52.570Z,1.70
2018-10-07T03:01:21.470Z,2.40
2018-10-07T03:03:50.390Z,1.70
2018-10-07T03:06:19.341Z,1.50
2018-10-07T03:08:48.312Z,1.60
2018-10-07T03:11:17.202Z,1.30
2018-10-07T03:13:46.060Z,1.30
2018-10-07T03:16:14.976Z,1.23
2018-10-07T03:18:43.826Z,1.30
2018-10-07T03:21:12.778Z,1.27
2018-10-07T03:23:41.664Z,1.00
2018-10-07T03:26:10.509Z,0.90
2018-10-07T03:28:39.470Z,0.60
2018-10-07T03:31:08.347Z,0.63
2018-10-07T03:33:37.371Z,0.90
2018-10-07T03:36:06.464Z,1.00
2018-10-07T03:38:35.346Z,0.80
2018-10-07T03:41:04.230Z,1.23
2018-10-07T03:43:33.109Z,0.53
2018-10-07T03:46:02.013Z,0.67
2018-10-07T03:48:31.087Z,0.70
2018-10-07T03:50:59.961Z,1.47
2018-10-07T03:53:28.834Z,0.60
2018-10-07T03:55:57.869Z,0.90
2018-10-07T03:58:26.727Z,0.63
2018-10-07T04:00:55.630Z,0.47
2018-10-07T04:03:24.542Z,0.40
2018-10-07T04:05:53.485Z,0.60
2018-10-07T04:08:22.362Z,0.53
2018-10-07T04:10:51.256Z,0.60
2018-10-07T04:13:20.172Z,0.43
2018-10-07T04:15:49.061Z,0.50
2018-10-07T04:18:18.468Z,0.50
2018-10-07T04:20:47.348Z,0.53
2018-10-07T04:23:16.766Z,0.50
2018-10-07T04:25:45.650Z,0.50
2018-10-07T04:28:14.513Z,0.50
2018-10-07T04:30:43.438Z,0.47
2018-10-07T04:33:12.333Z,0.30
2018-10-07T04:35:41.201Z,0.40
2018-10-07T04:38:10.248Z,0.40
2018-10-07T04:40:39.134Z,0.40
2018-10-07T04:43:08.008Z,0.47
2018-10-07T04:45:36.901Z,0.30
2018-10-07T04:48:05.761Z,0.57
2018-10-07T04:50:34.642Z,0.50
2018-10-07T04:53:03.576Z,0.50
2018-10-07T04:55:32.481Z,0.57
2018-10-07T04:58:01.366Z,0.50
2018-10-07T05:00:30.268Z,0.30
2018-10-07T05:02:59.161Z,0.70
2018-10-07T05:05:28.218Z,0.80
2018-10-07T05:07:57.260Z,0.60
2018-10-07T05:10:59.609Z,0.80
2018-10-07T05:13:49.026Z,0.50
2018-10-07T05:16:52.617Z,0.50
2018-10-07T05:19:21.573Z,0.70
2018-10-07T05:21:50.534Z,0.50
2018-10-07T05:24:19.447Z,1.33
2018-10-07T05:26:48.343Z,0.80
2018-10-07T05:29:17.284Z,0.70
2018-10-07T05:31:46.218Z,0.80
2018-10-07T05:34:15.147Z,0.80
2018-10-07T05:36:44.015Z,0.60
2018-10-07T05:39:13.216Z,0.80
2018-10-07T05:41:42.191Z,0.53
2018-10-07T05:44:11.179Z,0.70
2018-10-07T05:46:40.314Z,0.70
2018-10-07T05:49:09.191Z,0.67
2018-10-07T05:51:38.081Z,0.90
2018-10-07T05:54:07.165Z,0.83
2018-10-07T05:56:36.035Z,0.60
2018-10-07T05:59:05.623Z,0.57
2018-10-07T06:01:50.032Z,0.77
2018-10-07T06:05:22.268Z,0.60
2018-10-07T06:07:51.482Z,0.80
2018-10-07T06:10:20.386Z,0.60
2018-10-07T06:12:49.273Z,0.50
2018-10-07T06:15:27.888Z,0.40
2018-10-07T06:17:57.035Z,0.60
2018-10-07T06:20:26.144Z,0.50
2018-10-07T06:22:55.363Z,0.30
2018-10-07T06:25:24.303Z,0.40
2018-10-07T06:27:54.865Z,0.40
2018-10-07T06:30:23.732Z,0.70
2018-10-07T06:32:53.259Z,0.47
2018-10-07T06:35:22.976Z,0.50
2018-10-07T06:37:51.865Z,0.40
2018-10-07T06:40:20.755Z,0.50
2018-10-07T06:42:50.633Z,0.43
2018-10-07T06:45:19.813Z,0.40
2018-10-07T06:47:48.852Z,0.77
2018-10-07T06:50:17.727Z,0.30
2018-10-07T06:52:46.605Z,0.40
2018-10-07T06:55:15.523Z,0.60
2018-10-07T06:57:44.425Z,0.50
2018-10-07T07:00:13.308Z,0.40
2018-10-07T07:02:42.234Z,0.33
2018-10-07T07:05:11.136Z,0.70
2018-10-07T07:07:40.032Z,1.10
2018-10-07T07:10:08.938Z,0.67
2018-10-07T07:12:37.835Z,0.43
2018-10-07T07:15:07.070Z,0.60
2018-10-07T07:17:35.981Z,0.67
2018-10-07T07:20:04.893Z,0.60
2018-10-07T07:22:33.911Z,0.47
2018-10-07T07:25:02.783Z,1.00
2018-10-07T07:27:32.026Z,0.60
2018-10-07T07:30:00.903Z,0.50
2018-10-07T07:32:29.737Z,0.43
2018-10-07T07:34:58.644Z,0.70
2018-10-07T07:37:27.502Z,0.50
2018-10-07T07:39:56.390Z,0.67
2018-10-07T07:42:25.299Z,0.40
2018-10-07T07:44:54.124Z,0.60
2018-10-07T07:47:23.034Z,0.40
2018-10-07T07:49:51.876Z,0.63
2018-10-07T07:52:20.771Z,0.50
2018-10-07T07:54:49.654Z,0.93
2018-10-07T07:57:18.541Z,0.43
2018-10-07T07:59:47.439Z,0.70
2018-10-07T08:02:16.293Z,0.50
2018-10-07T08:04:45.176Z,0.47
2018-10-07T08:07:14.075Z,0.40
2018-10-07T08:09:43.021Z,1.03
2018-10-07T08:12:11.906Z,0.50
2018-10-07T08:14:40.824Z,0.67
2018-10-07T08:17:09.725Z,0.40
2018-10-07T08:19:42.157Z,0.60
2018-10-07T08:22:11.083Z,0.30
2018-10-07T08:24:40.004Z,0.40
2018-10-07T08:27:08.906Z,0.60
2018-10-07T08:29:37.859Z,0.50
2018-10-07T08:32:06.741Z,0.40
2018-10-07T08:34:35.595Z,0.37
2018-10-07T08:37:04.514Z,0.60
2018-10-07T08:39:33.369Z,1.00
2018-10-07T08:42:02.284Z,0.60
2018-10-07T08:44:31.217Z,0.40
2018-10-07T08:47:00.098Z,1.00
2018-10-07T08:49:29.017Z,0.50
2018-10-07T08:51:57.945Z,0.50
2018-10-07T08:54:26.784Z,0.40
2018-10-07T08:56:55.860Z,0.40
2018-10-07T08:59:24.968Z,0.40
2018-10-07T09:01:53.925Z,0.30
2018-10-07T09:04:22.849Z,0.40
2018-10-07T09:06:51.753Z,0.30
2018-10-07T09:09:20.610Z,0.53
2018-10-07T09:11:49.507Z,0.40
2018-10-07T09:14:18.404Z,0.20
2018-10-07T09:16:47.261Z,0.30
2018-10-07T09:19:24.596Z,0.60
2018-10-07T09:21:54.013Z,0.50
2018-10-07T09:24:22.890Z,0.50
2018-10-07T09:26:51.880Z,0.30
2018-10-07T09:29:20.683Z,0.37
2018-10-07T09:31:49.611Z,1.07
2018-10-07T09:34:18.503Z,0.50
2018-10-07T09:36:47.410Z,0.70
2018-10-07T09:39:16.339Z,0.37
2018-10-07T09:41:45.225Z,0.50
2018-10-07T09:44:14.139Z,0.50
2018-10-07T09:46:43.052Z,0.40
2018-10-07T09:49:12.048Z,0.63
2018-10-07T09:51:41.037Z,0.40
2018-10-07T09:54:09.885Z,0.50
2018-10-07T09:56:38.787Z,0.73
2018-10-07T09:59:07.687Z,0.50
2018-10-07T10:01:36.584Z,1.07
2018-10-07T10:04:05.569Z,0.50
2018-10-07T10:06:34.347Z,0.50
2018-10-07T10:09:03.291Z,0.53
2018-10-07T10:11:32.182Z,0.43
2018-10-07T10:14:01.406Z,0.60
2018-10-07T10:16:37.605Z,0.60
2018-10-07T10:19:10.209Z,0.40
2018-10-07T10:21:47.588Z,0.60
2018-10-07T10:24:29.313Z,0.70
2018-10-07T10:27:07.904Z,0.80
2018-10-07T10:29:44.649Z,0.53
2018-10-07T10:32:54.249Z,0.60
2018-10-07T10:35:36.673Z,0.40
2018-10-07T10:38:09.679Z,0.60
2018-10-07T10:40:44.634Z,0.77
2018-10-07T10:43:22.224Z,0.40
2018-10-07T10:46:02.294Z,0.40
2018-10-07T10:48:36.571Z,0.50
2018-10-07T10:52:15.006Z,0.40
2018-10-07T10:54:48.119Z,0.30
2018-10-07T10:57:20.037Z,0.40
2018-10-07T11:00:23.149Z,0.50
2018-10-07T11:06:06.590Z,0.67
2018-10-07T11:08:47.841Z,0.30
2018-10-07T11:11:30.572Z,0.73
2018-10-07T11:15:21.460Z,0.97
2018-10-07T11:18:01.345Z,0.37
2018-10-07T11:21:41.091Z,1.10
2018-10-07T11:24:18.958Z,0.47
2018-10-07T11:28:59.581Z,0.63
2018-10-07T11:31:57.533Z,0.40
2018-10-07T11:34:37.761Z,0.30
2018-10-07T11:37:17.756Z,0.30
2018-10-07T11:41:58.069Z,0.40
2018-10-07T11:45:01.340Z,0.60
2018-10-07T11:47:37.963Z,0.60
2018-10-07T11:50:14.468Z,0.30
2018-10-07T11:52:57.306Z,1.10
2018-10-07T11:55:26.160Z,0.20
2018-10-07T11:57:55.124Z,0.50
2018-10-07T12:00:24.003Z,0.67
2018-10-07T12:02:52.997Z,0.80
2018-10-07T12:05:22.495Z,0.67
2018-10-07T12:07:52.089Z,0.57
2018-10-07T12:10:20.980Z,0.43
2018-10-07T12:12:49.915Z,0.53
2018-10-07T12:15:18.811Z,0.70
2018-10-07T12:17:47.773Z,0.50
2018-10-07T12:20:16.701Z,0.60
2018-10-07T12:22:46.019Z,0.57
2018-10-07T12:25:14.946Z,0.47
2018-10-07T12:27:43.878Z,0.10
2018-10-07T12:30:12.807Z,0.70
2018-10-07T12:32:41.689Z,0.63
2018-10-07T12:35:10.576Z,0.50
2018-10-07T12:37:39.514Z,0.60
2018-10-07T12:40:08.419Z,0.40
2018-10-07T12:42:37.372Z,0.47
2018-10-07T12:45:06.309Z,0.47
2018-10-07T12:47:35.388Z,0.60
2018-10-07T12:50:04.268Z,0.40
2018-10-07T12:52:33.387Z,0.70
2018-10-07T12:55:02.302Z,0.57
2018-10-07T12:57:31.217Z,0.40
2018-10-07T13:00:00.114Z,0.30
2018-10-07T13:02:29.007Z,0.60
2018-10-07T13:04:57.907Z,0.30
2018-10-07T13:07:26.767Z,0.30
2018-10-07T13:09:55.675Z,0.40
2018-10-07T13:12:24.569Z,0.50
2018-10-07T13:14:53.480Z,0.30
2018-10-07T13:17:22.414Z,0.50
2018-10-07T13:19:51.291Z,0.50
2018-10-07T13:22:20.206Z,0.40
2018-10-07T13:24:49.098Z,0.30
2018-10-07T13:27:18.054Z,0.50
2018-10-07T13:29:47.166Z,0.40
2018-10-07T13:32:16.036Z,0.40
2018-10-07T13:34:44.997Z,0.73
2018-10-07T13:37:13.986Z,0.40
2018-10-07T13:39:42.939Z,0.30
2018-10-07T13:42:11.807Z,0.97
2018-10-07T13:44:40.702Z,0.90
2018-10-07T13:47:09.582Z,0.77
2018-10-07T13:49:38.532Z,0.30
2018-10-07T13:52:07.459Z,0.47
2018-10-07T13:54:36.376Z,0.40
2018-10-07T13:57:05.248Z,0.37
2018-10-07T13:59:34.157Z,0.40
2018-10-07T14:02:03.011Z,0.47
2018-10-07T14:04:31.920Z,0.50
2018-10-07T14:07:00.846Z,0.40
2018-10-07T14:09:29.719Z,0.60
2018-10-07T14:11:58.609Z,0.33
2018-10-07T14:14:27.510Z,0.50
2018-10-07T14:16:56.449Z,0.50
2018-10-07T14:19:25.328Z,0.70
2018-10-07T14:21:54.215Z,0.53
2018-10-07T14:24:23.102Z,0.40
2018-10-07T14:26:52.007Z,0.30
2018-10-07T14:29:20.878Z,0.27
2018-10-07T14:31:49.773Z,0.63
2018-10-07T14:34:18.671Z,0.50
2018-10-07T14:36:47.596Z,0.50
2018-10-07T14:39:16.532Z,0.73
2018-10-07T14:41:45.378Z,0.40
2018-10-07T14:44:14.443Z,0.60
2018-10-07T14:46:43.333Z,0.80
2018-10-07T14:49:12.189Z,0.90
2018-10-07T14:51:41.107Z,0.67
2018-10-07T14:54:09.984Z,0.40
2018-10-07T14:56:38.979Z,0.40
2018-10-07T14:59:07.892Z,0.40
2018-10-07T15:01:36.768Z,0.80
2018-10-07T15:04:05.843Z,0.50
2018-10-07T15:06:35.050Z,0.30
2018-10-07T15:09:04.741Z,0.60
2018-10-07T15:11:33.997Z,0.50
2018-10-07T15:14:02.928Z,0.50
2018-10-07T15:16:31.866Z,0.80
2018-10-07T15:19:00.786Z,0.73
2018-10-07T15:21:29.753Z,0.53
2018-10-07T15:23:58.866Z,0.67
2018-10-07T15:26:27.852Z,0.50
2018-10-07T15:28:56.769Z,0.60
2018-10-07T15:31:25.681Z,0.73
2018-10-07T15:33:54.542Z,0.50
2018-10-07T15:36:23.431Z,0.83
2018-10-07T15:38:52.343Z,0.70
2018-10-07T15:41:21.411Z,0.70
2018-10-07T15:43:50.361Z,0.80
2018-10-07T15:46:19.528Z,0.63
2018-10-07T15:48:48.452Z,0.60
2018-10-07T15:51:17.439Z,0.63
2018-10-07T15:53:46.396Z,0.43
2018-10-07T15:56:15.311Z,0.90
2018-10-07T15:58:44.269Z,0.60
2018-10-07T16:01:13.177Z,0.80
2018-10-07T16:03:42.085Z,1.83
2018-10-07T16:06:11.004Z,1.70
2018-10-07T16:08:41.569Z,0.93
2018-10-07T16:11:10.467Z,0.80
2018-10-07T16:13:39.551Z,1.00
2018-10-07T16:16:08.464Z,0.80
2018-10-07T16:18:37.458Z,0.73
2018-10-07T16:21:06.304Z,1.30
2018-10-07T16:23:35.257Z,0.70
2018-10-07T16:26:04.158Z,0.80
2018-10-07T16:28:33.111Z,1.10
2018-10-07T16:31:02.138Z,0.60
2018-10-07T16:33:31.927Z,0.60
2018-10-07T16:36:00.959Z,0.97
2018-10-07T16:38:29.966Z,0.87
2018-10-07T16:40:58.850Z,0.70
2018-10-07T16:43:27.772Z,1.30
2018-10-07T16:45:56.671Z,0.83
2018-10-07T16:48:25.606Z,0.70
2018-10-07T16:50:54.556Z,0.67
2018-10-07T16:53:23.451Z,0.80
2018-10-07T16:55:52.360Z,0.90
2018-10-07T16:58:21.297Z,1.07
2018-10-07T17:00:50.283Z,1.20
2018-10-07T17:03:19.210Z,1.57
2018-10-07T17:05:48.103Z,1.50
2018-10-07T17:08:17.231Z,1.43
2018-10-07T17:10:46.165Z,1.47
2018-10-07T17:13:15.255Z,1.57
2018-10-07T17:15:44.025Z,1.67
2018-10-07T17:18:13.034Z,2.27
2018-10-07T17:20:41.950Z,0.80
2018-10-07T17:23:10.874Z,0.80
2018-10-07T17:25:39.772Z,0.70
2018-10-07T17:28:08.669Z,0.53
2018-10-07T17:30:37.578Z,0.40
2018-10-07T17:33:06.522Z,0.70
2018-10-07T17:35:35.448Z,0.90
2018-10-07T17:38:04.357Z,1.07
2018-10-07T17:40:33.254Z,1.00
2018-10-07T17:43:02.186Z,1.27
2018-10-07T17:45:31.163Z,1.07
2018-10-07T17:48:00.127Z,1.03
2018-10-07T17:50:29.109Z,1.30
2018-10-07T17:52:57.976Z,1.43
2018-10-07T17:55:26.895Z,1.30
2018-10-07T17:57:55.863Z,1.40
2018-10-07T18:00:24.761Z,1.33
2018-10-07T18:02:53.934Z,1.03
2018-10-07T18:05:22.815Z,1.40
2018-10-07T18:07:51.700Z,1.10
2018-10-07T18:10:20.634Z,0.87
2018-10-07T18:12:49.585Z,1.00
2018-10-07T18:15:18.531Z,1.70
2018-10-07T18:17:47.490Z,2.80
2018-10-07T18:20:16.489Z,3.90
2018-10-07T18:22:45.346Z,2.03
2018-10-07T18:25:14.311Z,1.53
2018-10-07T18:27:43.217Z,1.40
2018-10-07T18:30:12.125Z,1.83
2018-10-07T18:32:41.043Z,1.20
2018-10-07T18:35:09.957Z,1.50
2018-10-07T18:37:38.900Z,1.13
2018-10-07T18:40:07.914Z,1.20
2018-10-07T18:42:36.794Z,1.00
2018-10-07T18:45:05.847Z,0.60
2018-10-07T18:47:34.741Z,0.50
2018-10-07T18:50:03.652Z,0.60
2018-10-07T18:52:32.579Z,0.67
2018-10-07T18:55:01.552Z,1.40
2018-10-07T18:57:30.464Z,1.03
2018-10-07T18:59:59.353Z,0.63
2018-10-07T19:02:28.269Z,0.70
2018-10-07T19:04:57.219Z,0.70
2018-10-07T19:07:26.145Z,0.63
2018-10-07T19:09:55.381Z,0.87
2018-10-07T19:12:24.275Z,0.97
2018-10-07T19:14:53.201Z,0.80
2018-10-07T19:17:22.215Z,0.77
2018-10-07T19:19:51.174Z,1.07
2018-10-07T19:22:22.805Z,0.67
2018-10-07T19:24:51.719Z,0.80
2018-10-07T19:27:20.642Z,0.80
2018-10-07T19:29:50.414Z,0.90
2018-10-07T19:32:19.301Z,1.07
2018-10-07T19:34:48.272Z,0.83
2018-10-07T19:37:17.384Z,0.70
2018-10-07T19:39:46.131Z,1.23
2018-10-07T19:42:15.068Z,1.30
2018-10-07T19:44:44.111Z,0.80
2018-10-07T19:47:12.991Z,0.43
2018-10-07T19:49:41.910Z,0.93
2018-10-07T19:52:10.869Z,1.23
2018-10-07T19:54:39.749Z,1.83
2018-10-07T19:57:08.684Z,1.20
2018-10-07T19:59:37.596Z,1.07
2018-10-07T20:02:06.605Z,1.10
2018-10-07T20:04:35.529Z,1.10
2018-10-07T20:07:04.502Z,2.07
2018-10-07T20:09:33.455Z,2.40
2018-10-07T20:12:02.399Z,2.10
2018-10-07T20:14:31.291Z,2.30
2018-10-07T20:17:00.237Z,1.20
2018-10-07T20:19:29.184Z,1.27
2018-10-07T20:21:58.091Z,0.90
2018-10-07T20:24:27.012Z,0.90
2018-10-07T20:26:55.889Z,1.40
2018-10-07T20:29:24.867Z,0.90
2018-10-07T20:31:53.797Z,1.03
2018-10-07T20:34:22.799Z,0.93
2018-10-07T20:36:51.700Z,0.90
2018-10-07T20:39:20.582Z,1.00
2018-10-07T20:41:49.523Z,1.10
2018-10-07T20:44:19.283Z,0.90
2018-10-07T20:46:48.144Z,1.13
2018-10-07T20:49:17.134Z,0.90
2018-10-07T20:51:46.101Z,0.80
2018-10-07T20:54:15.019Z,0.93
2018-10-07T20:56:44.124Z,0.93
2018-10-07T20:59:13.001Z,0.87
2018-10-07T21:01:41.898Z,0.87
2018-10-07T21:04:13.705Z,0.90
2018-10-07T21:06:42.534Z,0.90
2018-10-07T21:09:12.266Z,1.03
2018-10-07T21:11:41.128Z,1.77
2018-10-07T21:14:10.030Z,0.80
2018-10-07T21:16:38.946Z,1.07
2018-10-07T21:19:07.816Z,0.80
2018-10-07T21:21:36.696Z,1.00
2018-10-07T21:24:05.616Z,1.40
2018-10-07T21:26:34.457Z,1.07
2018-10-07T21:29:03.344Z,1.10
2018-10-07T21:31:32.282Z,1.07
2018-10-07T21:34:01.181Z,1.00
2018-10-07T21:36:30.044Z,0.80
2018-10-07T21:38:58.921Z,1.10
2018-10-07T21:41:27.921Z,0.70
2018-10-07T21:43:56.992Z,1.23
2018-10-07T21:46:25.965Z,0.77
2018-10-07T21:48:54.859Z,1.40
2018-10-07T21:51:23.745Z,1.03
2018-10-07T21:53:52.667Z,1.40
2018-10-07T21:56:21.541Z,0.93
2018-10-07T21:58:50.567Z,0.83
2018-10-07T22:01:19.607Z,0.70
2018-10-07T22:03:48.463Z,1.03
2018-10-07T22:06:17.359Z,1.17
2018-10-07T22:08:46.537Z,0.90
2018-10-07T22:11:15.463Z,0.80
2018-10-07T22:13:44.301Z,1.07
2018-10-07T22:16:13.212Z,0.83
2018-10-07T22:18:42.150Z,1.60
2018-10-07T22:21:11.295Z,0.73
2018-10-07T22:23:40.200Z,1.10
2018-10-07T22:26:09.091Z,1.00
2018-10-07T22:28:38.085Z,0.77
2018-10-07T22:31:07.130Z,1.40
2018-10-07T22:33:36.045Z,1.00
2018-10-07T22:36:04.921Z,1.00
2018-10-07T22:38:33.871Z,2.23
2018-10-07T22:41:02.751Z,0.90
2018-10-07T22:43:31.660Z,1.33
2018-10-07T22:46:00.511Z,1.20
2018-10-07T22:48:29.407Z,0.97
2018-10-07T22:50:58.322Z,1.47
2018-10-07T22:53:27.210Z,1.20
2018-10-07T22:55:56.083Z,0.87
2018-10-07T22:58:28.938Z,1.00
2018-10-07T23:00:57.852Z,1.20
2018-10-07T23:03:26.706Z,1.20
2018-10-07T23:05:55.608Z,1.20
2018-10-07T23:08:25.705Z,1.20
2018-10-07T23:10:54.570Z,0.90
2018-10-07T23:13:23.448Z,1.30
2018-10-07T23:15:52.350Z,1.30
2018-10-07T23:18:21.224Z,1.03
2018-10-07T23:20:50.194Z,1.40
2018-10-07T23:23:19.099Z,0.97
2018-10-07T23:25:47.963Z,1.13
2018-10-07T23:28:16.891Z,1.53
2018-10-07T23:30:45.771Z,1.10
2018-10-07T23:33:14.797Z,1.00
2018-10-07T23:35:43.647Z,1.33
2018-10-07T23:38:12.515Z,0.90
2018-10-07T23:40:42.632Z,1.03
2018-10-07T23:43:11.542Z,1.30
2018-10-07T23:45:40.436Z,1.20
2018-10-07T23:48:09.283Z,0.87
2018-10-07T23:50:38.144Z,1.27
2018-10-07T23:53:07.032Z,1.13
2018-10-07T23:55:35.910Z,0.83
2018-10-07T23:58:04.755Z,1.63
